Time;durP1;ratioP1;P1;durP2;ratioP2;P2;SDS_P1;SDS_P2;PMS_P1;PMS_P2;Temp;Humidity;BMP_temperature;BMP_pressure;BME280_temperature;BME280_humidity;BME280_pressure;Samples;Min_cycle;Max_cycle;Signal;HPM_P1;HPM_P2
2022/04/04 00:00:08;;;;;;;17.50;13.30;;;;;;;3.77;73.08;93521.31;5089467;28;20032;-50
2022/04/04 00:02:34;;;;;;;21.30;14.03;;;;;;;3.77;72.56;93513.13;5089760;28;20024;-51
2022/04/04 00:04:59;;;;;;;21.08;14.20;;;;;;;3.65;72.40;93511.69;5089668;28;20016;-55
2022/04/04 00:07:25;;;;;;;19.00;13.60;;;;;;;3.75;72.93;93506.69;5088361;28;20062;-47
2022/04/04 00:09:51;;;;;;;21.17;14.15;;;;;;;3.88;71.81;93522.53;5089432;28;20036;-48
2022/04/04 00:12:17;;;;;;;18.77;13.32;;;;;;;3.82;72.13;93525.28;5089819;28;20048;-49
2022/04/04 00:14:43;;;;;;;20.02;13.88;;;;;;;3.86;72.88;93533.94;5089738;28;20553;-48
2022/04/04 00:17:09;;;;;;;16.75;12.65;;;;;;;3.72;71.45;93530.28;5098350;28;20102;-48
2022/04/04 00:19:34;;;;;;;20.08;13.90;;;;;;;3.79;72.21;93545.38;5109953;28;20102;-48
2022/04/04 00:22:00;;;;;;;18.17;13.13;;;;;;;3.65;70.96;93532.78;5111062;28;20027;-49
2022/04/04 00:24:27;;;;;;;19.23;13.32;;;;;;;3.68;72.36;93529.78;5113669;28;20020;-47
2022/04/04 00:26:52;;;;;;;19.70;13.25;;;;;;;3.53;72.48;93543.00;5113638;28;20027;-48
2022/04/04 00:29:18;;;;;;;17.35;12.27;;;;;;;3.45;71.86;93533.09;5113297;28;20401;-47
2022/04/04 00:31:44;;;;;;;18.67;13.05;;;;;;;3.33;71.91;93531.66;5113572;28;20027;-50
2022/04/04 00:34:10;;;;;;;17.52;12.15;;;;;;;3.32;72.74;93527.41;5113327;28;20043;-47
2022/04/04 00:36:36;;;;;;;18.80;11.95;;;;;;;3.32;72.32;93521.97;5113348;28;20024;-48
2022/04/04 00:39:01;;;;;;;17.55;12.18;;;;;;;3.40;72.24;93525.69;5113550;27;20774;-54
2022/04/04 00:41:27;;;;;;;16.23;12.23;;;;;;;3.42;72.10;93517.75;5113449;28;20538;-57
2022/04/04 00:43:53;;;;;;;16.45;11.65;;;;;;;3.41;71.48;93518.97;5113178;28;20085;-58
2022/04/04 00:46:19;;;;;;;17.92;13.23;;;;;;;3.35;72.26;93515.50;5112207;28;20023;-57
2022/04/04 00:48:46;;;;;;;17.63;12.07;;;;;;;3.48;72.60;93510.25;5113287;28;20560;-58
2022/04/04 00:51:12;;;;;;;17.75;12.82;;;;;;;3.57;72.35;93516.16;5112982;28;20106;-58
2022/04/04 00:53:38;;;;;;;16.52;12.60;;;;;;;3.65;72.07;93514.44;5112687;27;20106;-58
2022/04/04 00:56:03;;;;;;;19.70;12.38;;;;;;;3.72;71.42;93526.81;5112848;28;20118;-58
2022/04/04 00:58:30;;;;;;;16.90;10.88;;;;;;;3.69;71.44;93530.53;5102489;28;20027;-60
2022/04/04 01:00:56;;;;;;;20.90;13.63;;;;;;;3.71;71.58;93530.78;5092309;28;20437;-59
2022/04/04 01:03:22;;;;;;;15.98;12.02;;;;;;;3.50;70.90;93510.50;5092678;28;20408;-58
2022/04/04 01:05:48;;;;;;;19.27;11.30;;;;;;;3.72;71.62;93529.53;5092205;28;20106;-58
2022/04/04 01:08:14;;;;;;;17.70;11.57;;;;;;;3.72;70.14;93530.28;5092216;28;20045;-58
2022/04/04 01:10:43;;;;;;;16.23;11.90;;;;;;;3.57;70.31;93534.56;5090890;28;20078;-58
2022/04/04 01:13:12;;;;;;;16.05;11.65;;;;;;;3.55;69.40;93526.13;5092197;28;20028;-58
2022/04/04 01:15:38;;;;;;;16.52;11.88;;;;;;;3.46;70.24;93534.59;5092128;28;20024;-59
2022/04/04 01:18:05;;;;;;;17.70;12.60;;;;;;;3.49;71.24;93519.94;5108846;28;20503;-59
2022/04/04 01:20:31;;;;;;;18.30;12.65;;;;;;;3.50;70.58;93530.38;5112698;28;20115;-59
2022/04/04 01:22:57;;;;;;;17.73;12.30;;;;;;;3.51;70.99;93536.56;5112366;28;20106;-59
2022/04/04 01:25:27;;;;;;;17.23;12.20;;;;;;;3.41;70.76;93541.53;5112113;28;20115;-60
2022/04/04 01:27:55;;;;;;;18.60;12.35;;;;;;;3.33;71.68;93537.84;5112506;28;20042;-58
2022/04/04 01:30:21;;;;;;;21.67;13.75;;;;;;;3.32;72.28;93538.34;5112117;28;20027;-56
2022/04/04 01:32:49;;;;;;;15.25;11.95;;;;;;;3.57;71.01;93537.28;5111729;28;20080;-51
2022/04/04 01:35:15;;;;;;;16.40;11.93;;;;;;;3.37;70.39;93532.88;5112102;28;20497;-48
2022/04/04 01:37:40;;;;;;;31.33;12.82;;;;;;;3.32;70.89;93525.44;5112171;28;20102;-48
2022/04/04 01:40:06;;;;;;;18.42;12.27;;;;;;;3.31;70.77;93525.94;5112247;28;20130;-51
2022/04/04 01:42:33;;;;;;;19.23;12.82;;;;;;;3.34;70.83;93533.13;5112277;28;20572;-50
2022/04/04 01:44:58;;;;;;;19.98;11.52;;;;;;;3.40;70.95;93523.69;5112196;28;20024;-51
2022/04/04 01:47:24;;;;;;;18.27;11.73;;;;;;;3.30;71.25;93519.00;5112051;28;20413;-50
2022/04/04 01:49:49;;;;;;;21.33;12.45;;;;;;;3.31;70.79;93515.78;5110546;28;20027;-50
2022/04/04 01:52:14;;;;;;;18.73;12.57;;;;;;;3.35;71.15;93532.63;5111749;28;20493;-51
2022/04/04 01:54:40;;;;;;;19.63;11.43;;;;;;;3.35;71.55;93534.63;5111678;28;20080;-50
2022/04/04 01:57:06;;;;;;;18.17;11.27;;;;;;;3.17;71.15;93529.69;5111859;28;20024;-50
2022/04/04 01:59:31;;;;;;;13.68;10.15;;;;;;;3.05;72.31;93513.34;5111332;28;20055;-49
2022/04/04 02:01:57;;;;;;;17.23;11.48;;;;;;;3.05;72.32;93509.88;5111439;28;20047;-55
2022/04/04 02:04:22;;;;;;;19.55;13.05;;;;;;;3.06;72.47;93528.47;5111820;28;20024;-54
2022/04/04 02:06:48;;;;;;;18.40;12.18;;;;;;;3.00;72.50;93527.00;5111819;28;20016;-58
2022/04/04 02:09:13;;;;;;;13.02;10.07;;;;;;;2.98;70.15;93534.94;5111856;28;20683;-56
2022/04/04 02:11:38;;;;;;;18.40;12.52;;;;;;;2.76;70.82;93510.41;5111700;28;20038;-59
2022/04/04 02:14:04;;;;;;;16.35;11.95;;;;;;;2.86;73.31;93523.28;5111632;28;20027;-59
2022/04/04 02:16:29;;;;;;;16.13;11.02;;;;;;;2.65;72.82;93527.50;5107714;28;20019;-60
2022/04/04 02:18:55;;;;;;;16.27;11.38;;;;;;;2.64;73.13;93528.00;5090862;28;20042;-60
2022/04/04 02:21:21;;;;;;;15.40;11.05;;;;;;;2.50;73.61;93507.94;5101085;28;20054;-60
2022/04/04 02:23:46;;;;;;;14.65;11.45;;;;;;;2.58;73.16;93519.81;5111121;28;20027;-57
2022/04/04 02:26:12;;;;;;;16.75;11.02;;;;;;;2.73;72.86;93520.31;5111504;28;20027;-58
2022/04/04 02:28:37;;;;;;;24.25;13.23;;;;;;;2.84;71.08;93523.03;5110914;28;20488;-59
2022/04/04 02:31:03;;;;;;;16.65;11.27;;;;;;;2.87;71.04;93521.31;5111367;28;20019;-55
2022/04/04 02:33:29;;;;;;;43.40;23.98;;;;;;;2.75;73.01;93526.00;5111290;28;20027;-56
2022/04/04 02:35:56;;;;;;;27.48;16.17;;;;;;;2.77;73.58;93526.25;5111150;28;20023;-51
2022/04/04 02:38:25;;;;;;;36.83;18.02;;;;;;;2.72;72.70;93518.09;5111069;28;20095;-51
2022/04/04 02:40:52;;;;;;;15.70;11.43;;;;;;;2.73;73.59;93525.75;5111264;28;20027;-52
2022/04/04 02:43:18;;;;;;;16.27;11.60;;;;;;;2.73;73.21;93525.75;5111114;28;20076;-50
2022/04/04 02:45:44;;;;;;;13.30;10.13;;;;;;;2.74;72.62;93521.81;5110221;28;20031;-48
2022/04/04 02:48:09;;;;;;;13.63;10.20;;;;;;;2.58;72.03;93508.91;5110784;28;20091;-48
2022/04/04 02:50:35;;;;;;;16.15;10.27;;;;;;;2.71;72.05;93530.22;5110631;28;20019;-49
2022/04/04 02:53:01;;;;;;;15.73;10.55;;;;;;;2.72;73.16;93516.13;5110622;28;20028;-53
2022/04/04 02:58:11;;;;;;;12.40;9.25;;;;;;;2.60;72.60;93511.16;5110444;28;20034;-50
2022/04/04 03:00:36;;;;;;;13.13;10.35;;;;;;;2.46;72.80;93515.63;5110332;28;20039;-49
2022/04/04 03:03:02;;;;;;;14.52;9.73;;;;;;;2.35;72.81;93507.44;5110676;28;20047;-52
2022/04/04 03:05:28;;;;;;;15.27;10.75;;;;;;;2.15;74.00;93513.09;5110821;28;20072;-52
2022/04/04 03:07:54;;;;;;;15.40;9.38;;;;;;;2.11;73.90;93515.31;5110333;28;20012;-51
2022/04/04 03:10:19;;;;;;;15.52;9.95;;;;;;;2.10;74.02;93513.84;5110531;28;20020;-50
2022/04/04 03:12:47;;;;;;;14.35;10.80;;;;;;;2.12;73.50;93503.91;5110752;28;20045;-50
2022/04/04 03:15:17;;;;;;;15.27;9.30;;;;;;;2.11;73.09;93516.06;5110417;28;20112;-49
2022/04/04 03:17:45;;;;;;;13.05;8.75;;;;;;;2.08;73.38;93514.31;5107842;28;20489;-50
2022/04/04 03:20:15;;;;;;;14.00;10.15;;;;;;;1.97;74.40;93513.56;5110425;28;20508;-48
2022/04/04 03:22:46;;;;;;;44.53;12.32;;;;;;;2.00;74.49;93515.28;5110385;28;20027;-48
2022/04/04 03:25:12;;;;;;;12.70;9.23;;;;;;;1.99;73.78;93508.38;5110642;28;20031;-49
2022/04/04 03:27:39;;;;;;;14.88;10.30;;;;;;;1.90;75.05;93522.94;5110254;28;20020;-51
2022/04/04 03:30:06;;;;;;;14.48;10.55;;;;;;;2.04;73.52;93526.69;5110392;28;20051;-49
2022/04/04 03:32:31;;;;;;;14.70;11.30;;;;;;;2.06;74.09;93516.03;5110461;28;20023;-52
2022/04/04 03:34:57;;;;;;;12.07;8.70;;;;;;;2.15;72.54;93522.00;5110321;28;20012;-51
2022/04/04 03:37:24;;;;;;;12.95;8.95;;;;;;;2.08;72.59;93521.75;5110175;28;20059;-51
2022/04/04 03:39:50;;;;;;;15.55;10.13;;;;;;;1.99;72.75;93525.44;5110317;28;20065;-50
2022/04/04 03:42:16;;;;;;;14.13;10.20;;;;;;;1.83;73.82;93530.84;5090993;28;20466;-48
2022/04/04 03:44:41;;;;;;;23.58;10.68;;;;;;;1.81;74.11;93520.44;5089841;28;20110;-52
2022/04/04 03:47:07;;;;;;;18.58;10.98;;;;;;;1.84;74.03;93533.06;5089816;28;20054;-50
2022/04/04 03:49:33;;;;;;;26.10;15.85;;;;;;;1.84;75.24;93535.78;5089703;28;20024;-48
2022/04/04 03:51:58;;;;;;;37.95;23.63;;;;;;;1.84;75.57;93535.78;5089714;28;20103;-53
2022/04/04 03:54:24;;;;;;;28.88;17.48;;;;;;;1.73;76.03;93545.91;5090101;28;20032;-49
2022/04/04 03:56:50;;;;;;;20.50;14.02;;;;;;;1.66;75.70;93543.66;5092167;28;20024;-48
2022/04/04 03:59:16;;;;;;;19.08;13.52;;;;;;;1.79;75.76;93557.56;5109847;28;20504;-51
2022/04/04 04:01:41;;;;;;;19.58;12.30;;;;;;;1.73;75.96;93565.72;5112958;28;20043;-53
2022/04/04 04:04:06;;;;;;;18.35;11.88;;;;;;;1.67;76.10;93570.38;5113652;28;20031;-49
2022/04/04 04:06:33;;;;;;;24.42;15.07;;;;;;;1.70;77.23;93574.09;5112655;28;20026;-61
2022/04/04 04:08:59;;;;;;;14.52;10.60;;;;;;;1.82;75.85;93576.38;5114084;28;20039;-63
2022/04/04 04:11:25;;;;;;;19.55;11.88;;;;;;;1.64;75.65;93567.88;5113675;28;20023;-63
2022/04/04 04:13:50;;;;;;;14.98;10.40;;;;;;;1.75;76.96;93590.47;5103367;28;20090;-64
2022/04/04 04:16:16;;;;;;;12.52;8.60;;;;;;;1.78;76.17;93594.16;5094829;28;20556;-64
2022/04/04 04:18:42;;;;;;;13.70;9.32;;;;;;;1.90;76.07;93606.59;5113590;28;20030;-64
2022/04/04 04:21:10;;;;;;;13.68;9.48;;;;;;;2.00;75.12;93616.03;5113912;28;20023;-59
2022/04/04 04:23:39;;;;;;;15.98;9.43;;;;;;;1.87;74.41;93621.19;5113850;28;20146;-54
2022/04/04 04:26:06;;;;;;;11.05;8.07;;;;;;;1.76;75.95;93621.88;5113780;28;20095;-51
2022/04/04 04:28:32;;;;;;;13.77;8.48;;;;;;;1.90;75.88;93620.97;5104025;28;20051;-50
2022/04/04 04:30:58;;;;;;;11.95;8.57;;;;;;;1.90;72.87;93620.97;5102699;28;20024;-54
2022/04/04 04:33:24;;;;;;;18.67;10.40;;;;;;;1.94;73.56;93623.44;5102078;28;20026;-56
2022/04/04 04:35:50;;;;;;;16.08;10.50;;;;;;;1.93;73.91;93630.09;5103793;28;20095;-52
2022/04/04 04:38:16;;;;;;;13.82;10.40;;;;;;;2.06;74.34;93624.97;5101967;28;20467;-50
2022/04/04 04:40:41;;;;;;;15.05;10.75;;;;;;;2.02;74.13;93627.94;5102551;28;20023;-51
2022/04/04 04:43:07;;;;;;;16.17;11.38;;;;;;;2.23;71.94;93634.69;5103723;28;20522;-50
2022/04/04 04:45:32;;;;;;;12.73;8.48;;;;;;;2.35;72.04;93637.44;5101714;28;20051;-51
2022/04/04 04:47:58;;;;;;;15.45;10.10;;;;;;;2.41;71.57;93644.41;5102876;28;20515;-49
2022/04/04 04:50:24;;;;;;;13.25;9.38;;;;;;;2.41;70.55;93649.84;5103227;28;20675;-48
2022/04/04 04:52:50;;;;;;;11.73;8.52;;;;;;;2.50;70.18;93646.91;5101176;28;20099;-50
2022/04/04 04:55:18;;;;;;;15.65;10.45;;;;;;;2.48;69.40;93641.22;5092797;28;20058;-52
2022/04/04 04:57:43;;;;;;;13.40;9.13;;;;;;;2.73;70.41;93645.00;5095657;28;20030;-51
2022/04/04 05:00:11;;;;;;;14.25;9.90;;;;;;;2.99;68.16;93640.03;5112743;28;20015;-51
2022/04/04 05:02:37;;;;;;;16.23;10.57;;;;;;;2.82;68.63;93650.94;5113047;27;20027;-52
2022/04/04 05:05:04;;;;;;;16.67;9.35;;;;;;;2.72;68.63;93648.94;5112776;28;20143;-52
2022/04/04 05:07:30;;;;;;;14.77;8.52;;;;;;;3.03;68.08;93651.47;5112159;28;20047;-53
2022/04/04 05:09:56;;;;;;;12.55;8.73;;;;;;;3.07;67.47;93660.88;5112275;28;20063;-49
2022/04/04 05:12:22;;;;;;;16.90;11.63;;;;;;;3.24;68.27;93660.13;5112922;28;20096;-51
2022/04/04 05:14:48;;;;;;;17.63;10.50;;;;;;;3.24;66.58;93657.41;5110304;28;20034;-50
2022/04/04 05:17:15;;;;;;;12.88;9.18;;;;;;;3.32;66.89;93658.41;5104218;28;20102;-48
2022/04/04 05:19:41;;;;;;;10.32;7.60;;;;;;;3.37;65.38;93669.31;5100524;28;20020;-51
2022/04/04 05:22:07;;;;;;;19.48;12.63;;;;;;;3.42;67.29;93671.28;5102914;27;20024;-48
2022/04/04 05:24:33;;;;;;;13.45;9.68;;;;;;;3.39;67.45;93666.84;5101294;28;20019;-48
2022/04/04 05:26:59;;;;;;;33.80;18.25;;;;;;;3.32;65.53;93652.94;5102907;28;20437;-49
2022/04/04 05:29:26;;;;;;;21.17;14.65;;;;;;;3.30;66.30;93666.34;5101070;28;20020;-48
2022/04/04 05:31:56;;;;;;;10.13;8.02;;;;;;;3.19;65.35;93630.88;5101329;27;20492;-50
2022/04/04 05:34:22;;;;;;;15.27;8.32;;;;;;;3.46;65.80;93654.69;5101733;28;20043;-52
2022/04/04 05:36:49;;;;;;;12.40;8.77;;;;;;;3.62;65.22;93656.63;5101511;28;20032;-50
2022/04/04 05:39:14;;;;;;;11.77;8.75;;;;;;;3.61;65.77;93646.97;5101606;28;20055;-51
2022/04/04 05:41:40;;;;;;;20.27;10.85;;;;;;;3.73;66.47;93651.91;5097296;28;20097;-53
2022/04/04 05:44:06;;;;;;;17.13;12.45;;;;;;;3.88;65.57;93659.81;5105732;28;20038;-53
2022/04/04 05:46:32;;;;;;;12.57;7.68;;;;;;;4.02;65.47;93675.19;5106021;27;20111;-58
2022/04/04 05:48:58;;;;;;;11.88;8.45;;;;;;;4.06;64.16;93674.91;5099857;28;20016;-50
2022/04/04 05:51:24;;;;;;;10.30;8.10;;;;;;;4.03;63.88;93679.38;5108564;28;20030;-51
2022/04/04 05:53:49;;;;;;;10.38;7.93;;;;;;;3.76;65.68;93661.09;5111926;27;20059;-54
2022/04/04 05:56:15;;;;;;;11.70;8.57;;;;;;;4.16;64.90;93684.34;5110357;28;20023;-60
2022/04/04 05:58:40;;;;;;;10.88;8.38;;;;;;;4.10;64.52;93678.13;5102653;28;20027;-59
2022/04/04 06:01:08;;;;;;;9.15;6.72;;;;;;;4.07;64.32;93688.06;5111116;28;20096;-60
2022/04/04 06:03:34;;;;;;;12.43;8.57;;;;;;;4.09;64.59;93685.59;5111651;28;20022;-60
2022/04/04 06:06:00;;;;;;;12.80;8.65;;;;;;;4.09;64.48;93693.06;5100980;28;20031;-58
2022/04/04 06:08:26;;;;;;;12.45;8.45;;;;;;;4.13;62.98;93699.75;5104802;28;20168;-51
2022/04/04 06:10:52;;;;;;;10.02;6.97;;;;;;;4.07;64.01;93695.53;5092844;28;20497;-48
2022/04/04 06:13:19;;;;;;;14.35;8.77;;;;;;;3.82;66.20;93689.13;5090402;28;20469;-56
2022/04/04 06:15:46;;;;;;;13.30;8.82;;;;;;;3.68;65.84;93692.88;5089744;28;20032;-60
2022/04/04 06:18:12;;;;;;;13.40;9.02;;;;;;;3.86;65.90;93695.06;5107255;28;20031;-61
2022/04/04 06:20:39;;;;;;;14.10;9.10;;;;;;;3.95;66.18;93691.34;5109104;28;20457;-57
2022/04/04 06:23:05;;;;;;;14.68;9.45;;;;;;;4.32;64.70;93694.47;5108947;28;20159;-59
2022/04/04 06:25:31;;;;;;;11.35;8.13;;;;;;;4.55;64.91;93676.72;5108099;28;20031;-60
2022/04/04 06:27:58;;;;;;;10.88;7.68;;;;;;;5.11;61.60;93680.63;5107921;28;20020;-61
2022/04/04 06:30:24;;;;;;;12.02;8.57;;;;;;;5.78;61.11;93686.31;5110169;28;20023;-61
2022/04/04 06:32:49;;;;;;;12.15;9.05;;;;;;;6.44;59.20;93675.97;5107412;28;20030;-59
2022/04/04 06:35:15;;;;;;;10.82;7.70;;;;;;;7.08;56.86;93679.66;5105740;28;20026;-61
2022/04/04 06:37:42;;;;;;;8.98;7.03;;;;;;;7.19;53.97;93680.22;5107393;28;20102;-60
2022/04/04 06:40:08;;;;;;;7.72;6.28;;;;;;;7.18;54.26;93680.75;5107375;28;20024;-56
2022/04/04 06:42:35;;;;;;;11.55;8.80;;;;;;;7.20;53.37;93667.22;5108440;28;20381;-59
2022/04/04 06:45:00;;;;;;;9.43;7.15;;;;;;;7.37;51.17;93684.22;5107878;28;20118;-57
2022/04/04 06:47:26;;;;;;;7.95;6.68;;;;;;;7.42;53.29;93681.38;5107507;28;20099;-57
2022/04/04 06:49:52;;;;;;;12.77;6.72;;;;;;;7.55;52.99;93678.69;5107389;28;20048;-61
2022/04/04 06:52:19;;;;;;;10.43;7.35;;;;;;;7.82;50.51;93687.72;5107829;28;20062;-60
2022/04/04 06:54:48;;;;;;;7.35;6.05;;;;;;;7.91;48.10;93687.34;5106709;28;20445;-60
2022/04/04 06:57:15;;;;;;;9.05;7.25;;;;;;;7.89;49.83;93700.13;5105434;28;20038;-61
2022/04/04 06:59:41;;;;;;;7.47;6.43;;;;;;;7.95;48.14;93676.75;5105691;28;20404;-58
2022/04/04 07:02:06;;;;;;;8.77;7.25;;;;;;;8.26;47.21;93697.25;5099425;28;20051;-57
2022/04/04 07:04:32;;;;;;;10.20;7.28;;;;;;;8.29;48.28;93699.69;5085862;28;20037;-60
2022/04/04 07:06:57;;;;;;;9.75;7.75;;;;;;;7.95;47.64;93703.53;5085711;28;20015;-60
2022/04/04 07:09:23;;;;;;;10.38;7.60;;;;;;;7.66;48.31;93702.50;5103912;28;20084;-59
2022/04/04 07:11:51;;;;;;;11.18;7.68;;;;;;;8.67;48.50;93705.72;5090320;28;20024;-52
2022/04/04 07:14:19;;;;;;;13.07;9.60;;;;;;;9.29;48.17;93691.44;5092792;28;20020;-58
2022/04/04 07:16:45;;;;;;;13.35;9.80;;;;;;;10.07;47.44;93691.06;5095168;28;20024;-59
2022/04/04 07:19:15;;;;;;;13.45;7.60;;;;;;;10.44;45.86;93693.41;5098194;28;20035;-59
2022/04/04 07:21:42;;;;;;;11.45;7.82;;;;;;;10.21;45.42;93702.81;5094917;28;20429;-60
2022/04/04 07:24:07;;;;;;;13.35;7.13;;;;;;;10.27;45.10;93714.44;5097111;28;20062;-60
2022/04/04 07:26:33;;;;;;;14.27;7.43;;;;;;;10.33;47.06;93720.56;5096131;28;20058;-60
2022/04/04 07:28:58;;;;;;;15.30;7.25;;;;;;;10.99;44.24;93709.75;5097269;28;20027;-60
2022/04/04 07:31:24;;;;;;;6.70;6.00;;;;;;;10.82;40.86;93712.97;5102481;28;20026;-61
2022/04/04 07:33:49;;;;;;;10.55;8.20;;;;;;;10.61;45.27;93715.78;5096545;28;20104;-60
2022/04/04 07:36:16;;;;;;;12.25;8.65;;;;;;;10.86;45.16;93727.19;5104281;28;20104;-61
2022/04/04 07:38:41;;;;;;;9.75;7.47;;;;;;;11.13;44.44;93724.94;5101398;28;20107;-63
2022/04/04 07:41:07;;;;;;;7.78;6.93;;;;;;;12.21;40.99;93722.66;5098989;28;20032;-62
2022/04/04 07:43:33;;;;;;;13.45;7.25;;;;;;;12.71;40.70;93725.22;5099179;28;20897;-61
2022/04/04 07:45:59;;;;;;;8.70;6.75;;;;;;;13.68;38.23;93723.47;5100890;28;20038;-58
2022/04/04 07:48:24;;;;;;;9.02;7.70;;;;;;;13.85;37.35;93725.59;5099965;28;20031;-59
2022/04/04 07:50:51;;;;;;;8.10;6.47;;;;;;;14.29;35.50;93723.16;5099191;28;20028;-59
2022/04/04 07:53:17;;;;;;;8.00;6.90;;;;;;;14.42;32.74;93725.63;5100765;28;20019;-60
2022/04/04 07:55:43;;;;;;;6.90;5.70;;;;;;;13.98;36.03;93730.16;5100127;28;20016;-61
2022/04/04 07:58:09;;;;;;;6.35;5.75;;;;;;;14.25;32.42;93726.25;5100814;28;20027;-59
2022/04/04 08:00:34;;;;;;;5.55;5.05;;;;;;;14.28;32.71;93729.97;5102873;28;20428;-60
2022/04/04 08:03:00;;;;;;;7.10;6.28;;;;;;;14.31;33.36;93734.41;5102373;28;20023;-61
2022/04/04 08:05:26;;;;;;;12.98;8.82;;;;;;;14.46;36.14;93728.75;5101513;28;20024;-61
2022/04/04 08:07:52;;;;;;;11.43;7.60;;;;;;;14.39;35.04;93723.97;5102001;28;20504;-59
2022/04/04 08:10:18;;;;;;;10.85;7.85;;;;;;;14.65;36.31;93728.22;5100185;28;20031;-61
2022/04/04 08:12:49;;;;;;;6.95;6.15;;;;;;;15.32;34.08;93729.59;5108640;28;20027;-62
2022/04/04 08:15:15;;;;;;;7.05;5.82;;;;;;;14.95;34.50;93730.72;5100076;28;20051;-60
2022/04/04 08:17:40;;;;;;;8.45;7.55;;;;;;;14.28;34.96;93735.50;5101745;28;20450;-56
2022/04/04 08:20:08;;;;;;;6.70;5.78;;;;;;;14.64;32.81;93729.53;5106771;28;20011;-53
2022/04/04 08:22:41;;;;;;;14.77;6.90;;;;;;;14.71;35.31;93729.47;5102382;28;20031;-50
2022/04/04 08:25:08;;;;;;;7.10;6.18;;;;;;;14.59;35.51;93728.47;5100848;28;20536;-55
2022/04/04 08:27:35;;;;;;;9.70;7.35;;;;;;;14.38;34.44;93726.00;5099523;28;20461;-51
2022/04/04 08:30:05;;;;;;;8.10;7.30;;;;;;;14.36;36.16;93702.88;5101501;28;20020;-59
2022/04/04 08:32:36;;;;;;;8.70;7.80;;;;;;;14.50;34.58;93717.22;5101726;28;20085;-60
2022/04/04 08:35:03;;;;;;;6.63;5.85;;;;;;;14.62;33.12;93710.63;5099888;28;20028;-59
2022/04/04 08:37:55;;;;;;;15.73;7.18;;;;;;;14.47;36.13;93713.53;5100070;28;20015;-61
2022/04/04 08:40:20;;;;;;;8.80;6.40;;;;;;;14.77;35.44;93704.94;5100472;28;20031;-59
2022/04/04 08:42:46;;;;;;;8.57;6.38;;;;;;;14.86;35.32;93703.56;5099291;28;20015;-67
2022/04/04 08:45:12;;;;;;;8.55;6.93;;;;;;;15.27;34.30;93693.69;5099027;28;20051;-62
2022/04/04 08:47:39;;;;;;;9.38;6.57;;;;;;;15.32;32.94;93685.09;5098888;28;20563;-59
2022/04/04 08:50:05;;;;;;;5.97;4.90;;;;;;;14.91;30.66;93692.22;5103614;28;20015;-57
2022/04/04 08:52:31;;;;;;;8.70;7.38;;;;;;;14.94;31.50;93691.06;5111891;27;20023;-64
2022/04/04 08:54:57;;;;;;;8.45;6.00;;;;;;;15.23;32.10;93679.44;5107876;28;20119;-68
2022/04/04 08:57:22;;;;;;;7.45;6.25;;;;;;;15.07;34.33;93682.38;5110649;28;20122;-67
2022/04/04 08:59:48;;;;;;;10.55;7.47;;;;;;;14.78;31.75;93684.19;5111276;27;20016;-66
2022/04/04 09:02:14;;;;;;;9.27;6.60;;;;;;;14.77;33.89;93679.91;5111012;28;20050;-64
2022/04/04 09:04:40;;;;;;;9.18;6.43;;;;;;;15.36;34.84;93674.28;5110918;28;20808;-61
2022/04/04 09:07:11;;;;;;;9.10;7.10;;;;;;;15.86;33.33;93669.94;5110112;28;20038;-61
2022/04/04 09:09:40;;;;;;;10.23;7.75;;;;;;;15.67;34.60;93669.09;5110749;28;20028;-65
2022/04/04 09:12:19;;;;;;;6.17;5.57;;;;;;;16.08;30.29;93662.56;5111126;28;20092;-60
2022/04/04 09:14:52;;;;;;;7.28;6.43;;;;;;;15.99;30.96;93663.25;5110677;28;20417;-57
2022/04/04 09:17:24;;;;;;;15.55;8.70;;;;;;;16.25;30.66;93654.13;5108040;27;20123;-68
2022/04/04 09:19:50;;;;;;;5.57;5.05;;;;;;;16.00;30.33;93644.50;5101142;28;20023;-67
2022/04/04 09:22:18;;;;;;;6.70;5.50;;;;;;;15.93;31.84;93646.09;5100027;28;20110;-61
2022/04/04 09:25:00;;;;;;;7.07;5.47;;;;;;;15.73;31.23;93650.06;5100578;28;20034;-61
2022/04/04 09:27:34;;;;;;;8.15;6.10;;;;;;;15.53;30.91;93643.66;5101348;28;20370;-65
2022/04/04 09:30:02;;;;;;;5.95;5.32;;;;;;;16.18;30.48;93635.47;5100769;28;20497;-67
2022/04/04 09:32:38;;;;;;;19.90;7.25;;;;;;;16.69;31.62;93631.69;5105795;28;20114;-60
2022/04/04 09:35:12;;;;;;;6.43;5.47;;;;;;;16.90;30.81;93614.38;5111256;28;20179;-60
2022/04/04 09:37:39;;;;;;;5.93;5.28;;;;;;;17.53;28.81;93628.78;5111385;28;20028;-63
2022/04/04 09:40:16;;;;;;;7.90;6.70;;;;;;;16.59;30.84;93622.56;5111323;28;20030;-60
2022/04/04 09:42:43;;;;;;;8.18;6.18;;;;;;;16.47;32.29;93630.00;5110949;28;20031;-61
2022/04/04 09:45:12;;;;;;;10.45;5.93;;;;;;;16.60;30.73;93621.25;5109696;28;20131;-61
2022/04/04 09:47:57;;;;;;;7.43;6.53;;;;;;;17.19;29.39;93612.34;5110899;28;20015;-60
2022/04/04 09:50:52;;;;;;;6.03;5.10;;;;;;;18.01;27.17;93611.91;5108811;28;20040;-61
2022/04/04 09:53:20;;;;;;;5.15;4.55;;;;;;;17.59;29.88;93609.66;5106564;28;20047;-59
2022/04/04 09:55:47;;;;;;;7.18;4.93;;;;;;;18.36;27.38;93615.72;5110582;28;20027;-61
2022/04/04 09:58:18;;;;;;;5.50;5.00;;;;;;;18.64;27.80;93628.09;5110245;28;20047;-60
2022/04/04 10:00:44;;;;;;;5.72;5.05;;;;;;;19.21;26.28;93613.69;5110425;28;20062;-60
2022/04/04 10:03:14;;;;;;;4.93;4.18;;;;;;;19.31;26.86;93608.75;5110511;28;20035;-61
2022/04/04 10:05:45;;;;;;;7.85;5.43;;;;;;;19.48;28.73;93610.53;5110432;28;20027;-66
2022/04/04 10:08:16;;;;;;;10.63;5.28;;;;;;;18.79;26.23;93608.88;5100916;28;20035;-66
2022/04/04 10:10:44;;;;;;;7.20;4.20;;;;;;;19.12;27.91;93603.31;5108010;28;20410;-66
2022/04/04 10:13:12;;;;;;;4.97;4.32;;;;;;;18.65;25.75;93601.59;5110207;28;20037;-67
2022/04/04 10:15:38;;;;;;;4.30;3.83;;;;;;;18.54;26.31;93597.38;5110192;28;20023;-67
2022/04/04 10:18:05;;;;;;;5.28;4.10;;;;;;;17.75;28.16;93588.47;5108869;28;20038;-64
2022/04/04 10:20:30;;;;;;;4.47;4.07;;;;;;;17.12;29.52;93591.63;5092396;28;20043;-65
2022/04/04 10:22:56;;;;;;;6.55;4.50;;;;;;;17.84;28.11;93573.00;5088527;28;20445;-68
2022/04/04 10:25:25;;;;;;;4.53;3.10;;;;;;;17.88;26.24;93587.97;5088102;28;20027;-63
2022/04/04 10:27:52;;;;;;;3.95;2.78;;;;;;;17.93;27.00;93586.19;5087363;28;20486;-69
2022/04/04 10:30:18;;;;;;;4.13;3.28;;;;;;;18.68;26.59;93580.81;5087745;28;20038;-59
2022/04/04 10:32:49;;;;;;;3.55;3.25;;;;;;;18.61;26.53;93584.53;5087202;28;20061;-61
2022/04/04 10:35:30;;;;;;;3.30;3.00;;;;;;;17.67;28.89;93573.22;5087418;28;20023;-61
2022/04/04 10:37:59;;;;;;;10.43;2.92;;;;;;;17.11;27.25;93533.63;5087347;28;20089;-64
2022/04/04 10:40:27;;;;;;;3.90;3.10;;;;;;;17.00;26.96;93562.84;5087232;28;20032;-60
2022/04/04 10:43:13;;;;;;;8.43;5.10;;;;;;;17.19;27.02;93562.84;5087289;28;20024;-61
2022/04/04 10:46:00;;;;;;;13.85;8.20;;;;;;;16.88;29.60;93555.69;5087646;28;20031;-65
2022/04/04 10:48:37;;;;;;;12.73;8.07;;;;;;;16.51;29.69;93566.22;5104605;28;20046;-65
2022/04/04 10:51:11;;;;;;;7.90;6.20;;;;;;;16.42;29.68;93562.06;5107855;28;20033;-59
2022/04/04 10:53:46;;;;;;;11.50;5.00;;;;;;;16.81;29.92;93548.91;5107918;28;20039;-66
2022/04/04 10:56:17;;;;;;;11.48;7.03;;;;;;;16.59;29.03;93547.28;5107384;28;20032;-61
2022/04/04 10:58:42;;;;;;;23.75;13.27;;;;;;;15.81;30.13;93542.88;5093625;28;20070;-70
2022/04/04 11:01:14;;;;;;;5.93;4.43;;;;;;;15.62;31.17;93542.06;5088734;28;20167;-63
2022/04/04 11:03:48;;;;;;;4.85;4.30;;;;;;;15.42;30.85;93548.84;5086315;28;20032;-69
2022/04/04 11:09:37;;;;;;;5.80;3.30;;;;;;;15.29;32.42;93540.84;5086832;28;20673;-64
2022/04/04 11:12:14;;;;;;;5.88;4.07;;;;;;;15.44;30.68;93535.81;5087307;28;20115;-67
2022/04/04 11:14:46;;;;;;;6.45;3.65;;;;;;;15.90;30.68;93530.28;5099863;28;20516;-71
2022/04/04 11:17:13;;;;;;;5.47;4.00;;;;;;;15.54;31.28;93530.31;5100119;28;20028;-68
2022/04/04 11:20:21;;;;;;;4.80;4.03;;;;;;;16.15;31.36;93528.03;5101406;28;20035;-67
2022/04/04 11:22:51;;;;;;;4.65;3.80;;;;;;;16.33;30.80;93531.44;5102314;28;20023;-71
2022/04/04 11:25:19;;;;;;;5.00;3.70;;;;;;;16.39;30.29;93535.41;5099574;28;20040;-66
2022/04/04 11:27:50;;;;;;;4.57;3.67;;;;;;;16.13;31.54;93529.91;5095994;28;20467;-62
2022/04/04 11:30:24;;;;;;;4.28;3.75;;;;;;;16.62;29.86;93524.56;5097086;28;20032;-68
2022/04/04 11:32:51;;;;;;;4.53;3.90;;;;;;;16.39;29.24;93523.50;5096317;28;20504;-70
2022/04/04 11:35:22;;;;;;;4.50;4.03;;;;;;;16.24;30.19;93524.50;5102512;28;20031;-62